Time;durP1;ratioP1;P1;durP2;ratioP2;P2;SDS_P1;SDS_P2;PMS_P1;PMS_P2;Temp;Humidity;BMP_temperature;BMP_pressure;BME280_temperature;BME280_humidity;BME280_pressure;Samples;Min_cycle;Max_cycle;Signal;HPM_P1;HPM_P2
2022/10/06 00:02:13;;;;;;;615.60;214.50;;;11.70;1.00;;;;;;4935464;29;20228;-89
2022/10/06 00:04:41;;;;;;;613.07;217.90;;;11.70;1.00;;;;;;4935207;29;20201;-89
2022/10/06 00:07:08;;;;;;;617.33;213.83;;;11.70;1.00;;;;;;4935251;29;20203;-88
2022/10/06 00:09:35;;;;;;;606.33;184.80;;;11.70;1.00;;;;;;4934884;29;20244;-89
2022/10/06 00:12:02;;;;;;;605.20;185.27;;;11.70;1.00;;;;;;4935064;29;20192;-88
2022/10/06 00:14:29;;;;;;;608.13;190.13;;;11.80;1.00;;;;;;4935357;29;20268;-87
2022/10/06 00:16:56;;;;;;;613.10;193.90;;;11.80;1.00;;;;;;4935064;29;20196;-89
2022/10/06 00:19:23;;;;;;;615.63;203.43;;;11.70;1.00;;;;;;4935207;29;20200;-91
2022/10/06 00:21:52;;;;;;;609.40;198.60;;;11.70;1.00;;;;;;4935474;29;20225;-88
2022/10/06 00:24:19;;;;;;;617.33;215.77;;;11.70;1.00;;;;;;4934524;29;20572;-89
2022/10/06 00:26:46;;;;;;;611.73;197.60;;;11.70;1.00;;;;;;4935048;29;20208;-89
2022/10/06 00:29:13;;;;;;;612.17;202.90;;;11.70;1.00;;;;;;4935053;29;20519;-89
2022/10/06 00:31:41;;;;;;;617.77;205.43;;;11.70;1.00;;;;;;4935123;29;20204;-87
2022/10/06 00:34:08;;;;;;;620.80;216.57;;;11.70;1.00;;;;;;4934653;29;20326;-89
2022/10/06 00:36:35;;;;;;;611.70;203.93;;;11.70;1.00;;;;;;4935318;29;20561;-89
2022/10/06 00:39:04;;;;;;;621.80;237.03;;;11.70;9.20;;;;;;4935180;29;20197;-89
2022/10/06 00:41:31;;;;;;;;;;;11.70;11.00;;;;;;4935040;29;20115;-87
2022/10/06 00:43:59;;;;;;;610.70;197.73;;;11.70;86.90;;;;;;4934756;29;20278;-91
2022/10/06 00:46:33;;;;;;;614.40;200.07;;;11.70;1.00;;;;;;4935086;29;20207;-88
2022/10/06 00:49:07;;;;;;;620.40;220.57;;;11.80;99.90;;;;;;4935323;29;20624;-88
2022/10/06 00:51:36;;;;;;;;;;;11.80;99.90;;;;;;4935661;29;20114;-88
2022/10/06 00:54:05;;;;;;;617.10;224.30;;;11.80;99.90;;;;;;4935650;29;20459;-87
2022/10/06 00:56:32;;;;;;;619.00;218.40;;;11.70;99.90;;;;;;4938538;29;20267;-89
2022/10/06 00:59:00;;;;;;;644.63;287.57;;;11.80;99.90;;;;;;4938584;29;20606;-89
2022/10/06 01:01:28;;;;;;;624.50;243.23;;;11.80;99.90;;;;;;4937886;29;20210;-86
2022/10/06 01:04:00;;;;;;;621.57;237.27;;;11.80;99.90;;;;;;4938360;29;20197;-88
2022/10/06 01:06:27;;;;;;;630.50;269.80;;;11.80;99.90;;;;;;4938507;29;20248;-89
2022/10/06 01:08:54;;;;;;;617.40;221.93;;;11.80;99.90;;;;;;4937861;29;20201;-88
2022/10/06 01:11:22;;;;;;;606.40;198.27;;;11.80;99.90;;;;;;4937930;29;20713;-87
2022/10/06 01:13:50;;;;;;;609.23;191.67;;;11.80;99.90;;;;;;4938171;29;20260;-86
2022/10/06 01:16:21;;;;;;;611.43;201.53;;;11.80;99.90;;;;;;4937825;29;20644;-89
2022/10/06 01:18:49;;;;;;;607.20;194.53;;;11.80;99.90;;;;;;4938338;29;20192;-87
2022/10/06 01:21:25;;;;;;;609.23;203.83;;;11.80;1.00;;;;;;4938133;29;20195;-90
2022/10/06 01:23:55;;;;;;;625.10;242.35;;;11.80;1.00;;;;;;4937184;29;20215;-87
2022/10/06 01:26:24;;;;;;;618.97;228.13;;;11.80;1.00;;;;;;4937050;29;20386;-88
2022/10/06 01:28:52;;;;;;;607.33;200.23;;;11.80;1.00;;;;;;4937426;29;20690;-88
2022/10/06 01:31:19;;;;;;;622.23;218.33;;;11.90;1.00;;;;;;4937782;29;20201;-89
2022/10/06 01:33:51;;;;;;;608.17;195.70;;;11.90;1.00;;;;;;4937198;29;20696;-87
2022/10/06 01:36:18;;;;;;;624.90;258.07;;;12.00;1.00;;;;;;4937774;29;20200;-89
2022/10/06 01:38:45;;;;;;;631.87;264.60;;;12.00;1.00;;;;;;4937886;29;20200;-86
2022/10/06 01:41:13;;;;;;;619.50;246.47;;;12.00;1.00;;;;;;4937652;29;20265;-89
2022/10/06 01:43:40;;;;;;;620.40;251.87;;;12.10;1.00;;;;;;4937190;29;20221;-88
2022/10/06 01:46:07;;;;;;;621.67;253.90;;;12.10;1.00;;;;;;4936829;29;20735;-87
2022/10/06 01:48:36;;;;;;;615.83;227.23;;;12.20;1.00;;;;;;4937518;29;20230;-87
2022/10/06 01:51:03;;;;;;;612.17;215.83;;;12.20;1.00;;;;;;4937196;29;20648;-89
2022/10/06 01:53:30;;;;;;;630.97;272.27;;;12.20;1.00;;;;;;4937338;29;20202;-90
2022/10/06 01:55:58;;;;;;;628.03;259.37;;;12.20;1.00;;;;;;4937433;29;20209;-86
2022/10/06 01:58:27;;;;;;;609.63;207.17;;;12.20;1.00;;;;;;4937195;29;20202;-89
2022/10/06 02:00:54;;;;;;;613.37;209.97;;;12.20;1.00;;;;;;4937231;29;20260;-86
2022/10/06 02:03:21;;;;;;;606.90;197.43;;;12.20;8.80;;;;;;4937014;29;20212;-89
2022/10/06 02:05:48;;;;;;;608.13;191.80;;;12.20;49.40;;;;;;4935921;29;20198;-88
2022/10/06 02:08:15;;;;;;;606.07;192.93;;;12.30;1.00;;;;;;4937266;29;20201;-85
2022/10/06 02:10:42;;;;;;;607.83;193.90;;;12.20;99.90;;;;;;4937148;29;20219;-87
2022/10/06 02:13:10;;;;;;;614.20;226.50;;;12.20;1.00;;;;;;4936856;29;20244;-88
2022/10/06 02:15:38;;;;;;;627.83;252.20;;;12.20;2.90;;;;;;4936501;29;20747;-87
2022/10/06 02:18:05;;;;;;;612.30;208.77;;;12.20;42.20;;;;;;4936530;29;20260;-88
2022/10/06 02:20:33;;;;;;;604.57;203.40;;;12.20;99.90;;;;;;4936609;29;20668;-86
2022/10/06 02:23:00;;;;;;;606.60;210.60;;;12.30;99.90;;;;;;4936715;29;20560;-85
2022/10/06 02:25:27;;;;;;;603.60;201.77;;;12.30;99.90;;;;;;4936607;29;20246;-86
2022/10/06 02:27:54;;;;;;;603.87;201.80;;;12.40;1.00;;;;;;4936945;29;20277;-87
2022/10/06 02:30:21;;;;;;;608.83;220.33;;;12.40;1.00;;;;;;4936680;29;20233;-88
2022/10/06 02:32:50;;;;;;;609.43;210.53;;;12.50;1.00;;;;;;4936214;29;20277;-88
2022/10/06 02:35:17;;;;;;;611.93;225.03;;;12.50;1.00;;;;;;4936238;29;20238;-88
2022/10/06 02:37:44;;;;;;;613.70;223.73;;;12.50;1.00;;;;;;4936693;29;20203;-87
2022/10/06 02:40:11;;;;;;;612.67;213.63;;;12.60;1.00;;;;;;4936476;29;20197;-86
2022/10/06 02:42:38;;;;;;;607.27;206.93;;;12.60;1.00;;;;;;4936064;29;20770;-86
2022/10/06 02:45:06;;;;;;;614.03;216.50;;;12.60;1.00;;;;;;4936212;29;20198;-86
2022/10/06 02:47:33;;;;;;;609.03;214.97;;;12.70;1.00;;;;;;4936001;29;20616;-89
2022/10/06 02:50:04;;;;;;;606.13;210.20;;;12.70;1.00;;;;;;4936039;29;20269;-88
2022/10/06 02:52:33;;;;;;;609.10;212.80;;;12.70;1.00;;;;;;4936270;29;20190;-86
2022/10/06 02:55:01;;;;;;;608.80;213.37;;;12.80;1.00;;;;;;4936243;29;20266;-87
2022/10/06 02:57:29;;;;;;;611.80;212.60;;;12.80;1.00;;;;;;4936161;29;20213;-86
2022/10/06 02:59:56;;;;;;;610.37;220.23;;;12.80;1.00;;;;;;4936170;29;20203;-87
2022/10/06 03:02:23;;;;;;;609.23;211.30;;;12.80;1.00;;;;;;4935974;29;20266;-88
2022/10/06 03:04:50;;;;;;;610.70;218.23;;;12.70;99.90;;;;;;4936004;29;20201;-89
2022/10/06 03:07:18;;;;;;;609.43;214.27;;;12.70;99.90;;;;;;4936281;29;20257;-89
2022/10/06 03:09:45;;;;;;;611.30;221.40;;;12.70;99.90;;;;;;4936339;29;20281;-86
2022/10/06 03:12:12;;;;;;;611.93;223.13;;;12.60;99.90;;;;;;4936025;29;20543;-87
2022/10/06 03:14:39;;;;;;;609.43;215.47;;;12.50;99.90;;;;;;4935869;29;20623;-88
2022/10/06 03:17:08;;;;;;;611.27;217.43;;;12.50;17.40;;;;;;4934616;29;20194;-89
2022/10/06 03:19:35;;;;;;;630.17;277.13;;;12.50;1.00;;;;;;4935598;29;20284;-88
2022/10/06 03:22:02;;;;;;;618.27;246.97;;;12.40;1.00;;;;;;4935320;29;20192;-88
2022/10/06 03:24:30;;;;;;;614.07;237.67;;;12.30;1.00;;;;;;4935544;29;20220;-88
2022/10/06 03:26:58;;;;;;;614.47;239.10;;;12.30;1.00;;;;;;4935635;29;20256;-86
2022/10/06 03:29:25;;;;;;;614.97;232.13;;;12.30;1.00;;;;;;4935166;29;20260;-88
2022/10/06 03:31:52;;;;;;;616.00;237.37;;;12.20;1.00;;;;;;4935588;29;20193;-88
2022/10/06 03:34:19;;;;;;;620.07;225.80;;;12.20;1.00;;;;;;4935639;29;20240;-89
2022/10/06 03:36:46;;;;;;;616.17;238.73;;;12.20;1.00;;;;;;4935754;29;20197;-88
2022/10/06 03:39:13;;;;;;;617.90;249.13;;;12.20;1.00;;;;;;4935743;29;20194;-85
2022/10/06 03:41:41;;;;;;;605.33;204.13;;;12.10;1.00;;;;;;4935330;29;20214;-88
2022/10/06 03:44:08;;;;;;;608.63;213.23;;;12.10;15.60;;;;;;4935458;29;20620;-87
2022/10/06 03:46:36;;;;;;;617.50;224.20;;;12.10;1.00;;;;;;4935090;29;20247;-85
2022/10/06 03:49:04;;;;;;;607.60;221.10;;;12.00;26.40;;;;;;4935575;29;20280;-88
2022/10/06 03:51:32;;;;;;;609.93;220.43;;;12.00;1.00;;;;;;4935656;29;20199;-88
2022/10/06 03:54:00;;;;;;;607.63;216.47;;;12.00;1.00;;;;;;4935314;29;20204;-88
2022/10/06 03:56:29;;;;;;;608.80;221.63;;;12.00;42.30;;;;;;4934977;29;20247;-87
2022/10/06 03:58:59;;;;;;;627.90;281.57;;;11.90;1.00;;;;;;4935035;29;20618;-88
2022/10/06 04:01:28;;;;;;;638.20;310.90;;;11.90;96.90;;;;;;4934946;29;20256;-87
2022/10/06 04:03:56;;;;;;;610.87;192.70;;;11.90;1.00;;;;;;4934899;29;20225;-90
2022/10/06 04:06:24;;;;;;;600.57;202.53;;;11.90;1.00;;;;;;4934742;29;20654;-87
2022/10/06 04:08:53;;;;;;;602.30;205.63;;;12.00;1.00;;;;;;4935353;29;20248;-88
2022/10/06 04:11:21;;;;;;;604.83;210.63;;;12.00;1.00;;;;;;4934599;29;20196;-89
2022/10/06 04:13:51;;;;;;;605.47;212.57;;;12.00;1.00;;;;;;4934821;29;20657;-87
2022/10/06 04:16:22;;;;;;;610.73;221.50;;;12.10;1.00;;;;;;4934899;29;20189;-85
2022/10/06 04:18:51;;;;;;;604.10;210.70;;;12.10;99.90;;;;;;4934731;29;20277;-86
2022/10/06 04:21:18;;;;;;;606.47;213.87;;;12.10;1.00;;;;;;4935172;29;20201;-86
2022/10/06 04:23:45;;;;;;;608.97;210.90;;;12.10;1.00;;;;;;4935128;29;20265;-86
2022/10/06 04:26:14;;;;;;;607.77;215.27;;;12.10;1.00;;;;;;4935040;29;20261;-87
2022/10/06 04:28:42;;;;;;;620.23;239.07;;;12.10;1.00;;;;;;4935697;29;20206;-88
2022/10/06 04:31:14;;;;;;;613.63;241.53;;;12.10;99.90;;;;;;4938722;29;20300;-85
2022/10/06 04:33:44;;;;;;;625.80;271.60;;;12.10;99.90;;;;;;4938703;29;20313;-88
2022/10/06 04:36:14;;;;;;;644.17;280.67;;;12.10;99.90;;;;;;4938878;29;20201;-87
2022/10/06 04:38:41;;;;;;;641.00;298.63;;;12.10;99.90;;;;;;4937998;29;20200;-88
2022/10/06 04:41:11;;;;;;;615.60;240.30;;;12.10;39.40;;;;;;4938111;29;20201;-89
2022/10/06 04:43:38;;;;;;;622.57;231.33;;;12.10;1.00;;;;;;4937854;29;20994;-85
2022/10/06 04:46:05;;;;;;;619.43;249.60;;;12.10;1.00;;;;;;4938066;29;20193;-85
2022/10/06 04:48:33;;;;;;;639.10;287.47;;;12.10;49.70;;;;;;4938088;29;20211;-84
2022/10/06 04:51:03;;;;;;;612.30;192.07;;;12.20;1.00;;;;;;4938306;29;20252;-85
2022/10/06 04:53:31;;;;;;;617.97;246.30;;;12.30;99.90;;;;;;4937917;29;20205;-86
2022/10/06 04:56:00;;;;;;;616.10;246.77;;;12.30;99.90;;;;;;4937975;29;20707;-87
2022/10/06 04:58:30;;;;;;;617.30;250.03;;;12.40;99.90;;;;;;4937696;29;20268;-88
2022/10/06 05:00:57;;;;;;;620.27;250.83;;;12.60;99.90;;;;;;4937944;29;20253;-86
2022/10/06 05:03:24;;;;;;;625.57;272.13;;;12.70;1.00;;;;;;4938189;29;20306;-88
2022/10/06 05:05:51;;;;;;;628.17;255.67;;;12.80;1.00;;;;;;4938228;29;20202;-88
2022/10/06 05:08:19;;;;;;;624.40;224.77;;;12.90;99.90;;;;;;4937592;29;20650;-89
2022/10/06 05:10:46;;;;;;;638.50;307.27;;;13.00;1.00;;;;;;4937919;29;20293;-86
2022/10/06 05:13:14;;;;;;;631.80;275.90;;;13.10;99.90;;;;;;4937998;29;20593;-89
2022/10/06 05:15:41;;;;;;;638.23;303.33;;;13.20;99.90;;;;;;4937986;29;20206;-90
2022/10/06 05:18:08;;;;;;;639.07;321.63;;;13.30;1.00;;;;;;4938069;29;20210;-87
2022/10/06 05:20:35;;;;;;;646.37;316.57;;;13.50;99.90;;;;;;4938048;29;20207;-87
2022/10/06 05:23:06;;;;;;;620.93;219.93;;;13.60;1.00;;;;;;4938126;29;20203;-87
2022/10/06 05:25:34;;;;;;;616.97;209.70;;;13.80;99.90;;;;;;4944058;29;20205;-84
2022/10/06 05:28:01;;;;;;;641.77;269.57;;;13.90;1.00;;;;;;4940719;29;20263;-87
2022/10/06 05:30:44;;;;;;;637.70;276.47;;;14.10;99.90;;;;;;4939318;29;20204;-91
2022/10/06 05:33:27;;;;;;;639.70;271.23;;;14.20;1.00;;;;;;4945436;28;20254;-87
2022/10/06 05:35:56;;;;;;;634.03;276.63;;;14.30;1.00;;;;;;4941233;29;20211;-88
2022/10/06 05:38:34;;;;;;;631.10;237.83;;;14.40;99.90;;;;;;4943803;29;20208;-89
2022/10/06 05:41:08;;;;;;;614.80;212.47;;;14.50;1.00;;;;;;4938283;29;20255;-85
2022/10/06 05:44:07;;;;;;;637.87;297.83;;;14.60;1.00;;;;;;4937766;29;20291;-87
2022/10/06 05:46:49;;;;;;;621.53;191.50;;;14.70;1.00;;;;;;4937628;29;20218;-89
2022/10/06 05:49:31;;;;;;;627.83;229.80;;;14.80;1.00;;;;;;4937784;29;20287;-87
2022/10/06 05:55:26;;;;;;;;;;;;;;;;;;;;;
2022/10/06 05:57:58;;;;;;;634.23;335.43;;;14.90;1.00;;;;;;4937037;29;20857;-89
2022/10/06 06:00:53;;;;;;;639.43;326.77;;;15.00;99.90;;;;;;4937477;29;20206;-87
2022/10/06 06:03:59;;;;;;;590.17;188.63;;;15.00;1.00;;;;;;4937574;29;20258;-88
2022/10/06 06:09:30;;;;;;;602.30;171.23;;;15.10;1.00;;;;;;4936961;29;20196;-89
2022/10/06 06:12:03;;;;;;;613.63;275.37;;;15.20;1.00;;;;;;4936862;29;20243;-88
2022/10/06 06:18:13;;;;;;;589.40;186.47;;;15.30;1.00;;;;;;4936673;29;20187;-89
2022/10/06 06:24:20;;;;;;;632.33;294.03;;;15.30;99.90;;;;;;4878053;29;20699;-90
2022/10/06 06:27:38;;;;;;;649.07;333.67;;;15.40;99.90;;;;;;4877377;29;20218;-90
2022/10/06 06:30:33;;;;;;;648.27;316.53;;;15.40;1.00;;;;;;4822174;29;20297;-89
2022/10/06 06:33:40;;;;;;;652.50;323.27;;;15.40;1.00;;;;;;4864398;29;20221;-90
2022/10/06 06:37:00;;;;;;;665.13;329.83;;;15.50;1.00;;;;;;4863338;29;20207;-89
2022/10/06 06:40:09;;;;;;;658.37;335.70;;;15.50;1.00;;;;;;4876202;29;20217;-92
2022/10/06 06:43:35;;;;;;;665.63;359.03;;;15.60;1.00;;;;;;4878088;29;20288;-91
2022/10/06 06:49:28;;;;;;;649.40;308.50;;;15.50;1.00;;;;;;4788226;30;21050;-93
2022/10/06 06:59:52;;;;;;;;;;;;;;;;;;;;;
2022/10/06 07:06:26;;;;;;;;;;;16.50;1.00;;;;;;4811674;29;20145;-93
2022/10/06 07:11:49;;;;;;;;;;;18.50;1.00;;;;;;4856981;29;19930;-92
2022/10/06 07:14:17;;;;;;;;;;;19.10;99.90;;;;;;4935973;29;19943;-92
2022/10/06 07:39:41;;;;;;;;;;;22.70;1.00;;;;;;4884406;29;19967;-95
2022/10/06 07:50:46;;;;;;;652.83;309.23;;;24.70;1.00;;;;;;5274271;23;20244;-92
2022/10/06 07:53:15;;;;;;;;;;;25.00;1.00;;;;;;4945358;29;20201;-94
2022/10/06 07:58:27;;;;;;;;;;;25.60;1.00;;;;;;4920215;28;19929;-93
2022/10/06 08:00:57;;;;;;;645.57;332.30;;;25.70;1.00;;;;;;4955499;28;20396;-93
2022/10/06 08:03:25;;;;;;;635.43;335.07;;;25.90;1.00;;;;;;4942559;29;20619;-93
2022/10/06 08:06:00;;;;;;;633.77;339.10;;;26.00;1.00;;;;;;4952317;29;20264;-91
2022/10/06 08:22:14;;;;;;;308.07;144.90;;;24.50;1.00;;;;;;5995521;23;20206;-92
2022/10/06 08:24:42;;;;;;;307.10;142.67;;;24.10;1.00;;;;;;4936715;29;20221;-94
2022/10/06 08:27:12;;;;;;;693.90;343.27;;;24.30;1.00;;;;;;4938875;29;20212;-91
2022/10/06 08:29:41;;;;;;;673.80;334.73;;;24.60;1.00;;;;;;4929961;29;20201;-92
2022/10/06 08:38:54;;;;;;;682.23;342.57;;;25.10;1.00;;;;;;4944789;29;20186;-95
2022/10/06 08:47:12;;;;;;;671.77;342.60;;;25.40;1.00;;;;;;5963926;23;20970;-92
2022/10/06 08:52:54;;;;;;;703.93;317.63;;;25.60;1.00;;;;;;4929607;29;20208;-92
2022/10/06 09:15:53;;;;;;;703.93;303.30;;;24.80;1.00;;;;;;4942647;29;20630;-91
2022/10/06 09:18:24;;;;;;;;;;;24.70;1.00;;;;;;4961013;28;20081;-92
2022/10/06 09:20:57;;;;;;;17.30;15.40;;;24.40;1.00;;;;;;4938949;29;20195;-92
2022/10/06 09:36:19;;;;;;;20.27;18.30;;;24.00;1.00;;;;;;4953571;28;20224;-94
2022/10/06 09:38:52;;;;;;;19.57;17.90;;;24.00;1.00;;;;;;4945846;29;20186;-94
2022/10/06 09:41:23;;;;;;;19.80;18.07;;;23.80;1.00;;;;;;4945212;29;20192;-94
2022/10/06 09:44:01;;;;;;;26.13;24.23;;;23.10;1.00;;;;;;4944459;29;20712;-93
2022/10/06 09:46:32;;;;;;;20.40;18.40;;;22.30;1.00;;;;;;4951941;29;20640;-94
2022/10/06 09:49:16;;;;;;;24.80;22.73;;;21.80;1.00;;;;;;4946819;29;20207;-93
2022/10/06 09:52:00;;;;;;;24.67;22.77;;;21.30;1.00;;;;;;4946641;29;20209;-93
2022/10/06 09:54:29;;;;;;;21.23;19.50;;;21.00;1.00;;;;;;4947359;29;20205;-94
2022/10/06 09:56:58;;;;;;;21.00;19.20;;;20.70;1.00;;;;;;4940689;29;20216;-94
2022/10/06 09:59:32;;;;;;;19.90;18.23;;;20.40;1.00;;;;;;4943784;29;20231;-94
2022/10/06 10:02:03;;;;;;;17.57;15.90;;;20.10;1.00;;;;;;4945380;29;20211;-94
2022/10/06 10:04:33;;;;;;;20.97;19.33;;;19.90;1.00;;;;;;4947939;29;20224;-93
2022/10/06 10:07:29;;;;;;;24.37;22.53;;;19.80;1.00;;;;;;4947485;29;20215;-94
2022/10/06 10:10:20;;;;;;;20.07;18.00;;;19.90;1.00;;;;;;4943603;29;20218;-91
2022/10/06 10:12:51;;;;;;;19.07;17.27;;;20.00;1.00;;;;;;4943791;29;20193;-92
2022/10/06 10:15:29;;;;;;;21.97;20.03;;;20.20;1.00;;;;;;4943630;29;20211;-92
2022/10/06 10:17:59;;;;;;;19.20;17.43;;;20.40;1.00;;;;;;4941932;29;20204;-92
2022/10/06 10:20:33;;;;;;;25.13;23.17;;;20.50;1.00;;;;;;4942434;29;20212;-92
2022/10/06 10:23:06;;;;;;;21.83;20.10;;;20.50;1.00;;;;;;4943296;29;20633;-92
2022/10/06 10:25:57;;;;;;;20.80;19.33;;;20.20;1.00;;;;;;4943640;29;20243;-95
2022/10/06 10:28:49;;;;;;;23.23;21.63;;;20.00;1.00;;;;;;4946520;29;20260;-94
2022/10/06 10:31:24;;;;;;;21.57;19.90;;;20.10;1.00;;;;;;4938587;29;20205;-95
2022/10/06 10:34:00;;;;;;;23.80;22.13;;;20.30;1.00;;;;;;4938050;29;20579;-95
2022/10/06 10:36:36;;;;;;;23.47;21.80;;;20.40;1.00;;;;;;4938196;29;20669;-93
2022/10/06 10:39:18;;;;;;;27.30;25.50;;;20.60;1.00;;;;;;4937946;29;20201;-92
2022/10/06 10:41:51;;;;;;;19.87;17.97;;;20.60;1.00;;;;;;4937351;29;20599;-93
2022/10/06 10:44:28;;;;;;;28.40;26.50;;;20.50;1.00;;;;;;4937797;29;20200;-91
2022/10/06 10:47:05;;;;;;;27.43;25.40;;;20.50;1.00;;;;;;4947937;29;20251;-91
2022/10/06 10:49:34;;;;;;;23.50;21.93;;;20.40;1.00;;;;;;4937177;29;20686;-93
2022/10/06 10:52:10;;;;;;;26.27;24.53;;;20.40;1.00;;;;;;4937564;29;20578;-92
2022/10/06 10:54:46;;;;;;;23.17;21.27;;;20.40;1.00;;;;;;4938221;29;20207;-93
2022/10/06 10:57:18;;;;;;;21.40;19.87;;;20.30;1.00;;;;;;4939358;29;20197;-92
2022/10/06 10:59:58;;;;;;;22.27;20.33;;;20.30;1.00;;;;;;4937766;29;20571;-92
2022/10/06 11:02:28;;;;;;;22.33;20.27;;;20.30;1.00;;;;;;4941647;29;20193;-93
2022/10/06 11:05:01;;;;;;;17.57;15.83;;;20.30;1.00;;;;;;4937678;29;20660;-92
2022/10/06 11:07:34;;;;;;;17.33;15.63;;;20.30;1.00;;;;;;4937304;29;20204;-93
2022/10/06 11:10:10;;;;;;;20.37;18.60;;;20.30;1.00;;;;;;4937597;29;20715;-94
2022/10/06 11:12:54;;;;;;;21.77;19.87;;;20.20;1.00;;;;;;4937518;29;20204;-94
2022/10/06 11:15:33;;;;;;;23.43;21.43;;;20.30;1.00;;;;;;4937230;29;20196;-93
2022/10/06 11:18:09;;;;;;;22.57;20.63;;;20.40;1.00;;;;;;4937679;29;20286;-93
2022/10/06 11:20:48;;;;;;;21.63;19.70;;;20.40;1.00;;;;;;4937193;29;20264;-92
2022/10/06 11:23:40;;;;;;;24.10;21.93;;;20.30;1.00;;;;;;4935376;29;20196;-93
2022/10/06 11:26:26;;;;;;;22.53;20.53;;;20.10;1.00;;;;;;4918478;29;20217;-95
2022/10/06 11:29:01;;;;;;;17.90;16.23;;;19.90;1.00;;;;;;4929389;29;20221;-92
2022/10/06 11:31:35;;;;;;;19.40;17.60;;;19.90;1.00;;;;;;4933439;29;20200;-91
2022/10/06 11:34:06;;;;;;;19.30;17.50;;;19.70;1.00;;;;;;4936933;29;20278;-94
2022/10/06 11:36:43;;;;;;;18.73;17.03;;;19.50;1.00;;;;;;4936771;29;20212;-94
2022/10/06 11:39:20;;;;;;;28.40;26.20;;;19.40;1.00;;;;;;4923672;29;20275;-93
2022/10/06 11:41:54;;;;;;;21.93;20.13;;;19.50;1.00;;;;;;4937874;29;20049;-92
2022/10/06 11:44:31;;;;;;;28.00;25.87;;;19.60;1.00;;;;;;4936872;29;20201;-92
2022/10/06 11:47:05;;;;;;;23.07;21.07;;;19.80;1.00;;;;;;4936835;29;20256;-93
2022/10/06 11:49:56;;;;;;;28.30;25.13;;;19.80;1.00;;;;;;4932871;29;20198;-94
2022/10/06 11:52:45;;;;;;;20.97;18.90;;;19.90;1.00;;;;;;4918839;29;20205;-91
2022/10/06 11:55:25;;;;;;;20.63;18.53;;;20.00;1.00;;;;;;4917914;29;20200;-92
2022/10/06 11:58:13;;;;;;;18.85;16.95;;;20.10;1.00;;;;;;4917724;29;20273;-93
2022/10/06 12:48:24;;;;;;;20.47;18.37;;;17.80;1.00;;;;;;4657460;30;20263;-95
2022/10/06 12:55:47;;;;;;;38.00;35.27;;;17.70;1.00;;;;;;4730130;29;20221;-94
2022/10/06 12:58:28;;;;;;;62.47;58.17;;;17.60;1.00;;;;;;4790107;30;20234;-93
2022/10/06 13:01:01;;;;;;;30.90;28.30;;;17.60;1.00;;;;;;4789873;30;20296;-93
2022/10/06 13:03:29;;;;;;;26.63;24.50;;;17.70;1.00;;;;;;4881462;29;20214;-93
2022/10/06 13:06:02;;;;;;;36.67;33.43;;;17.80;1.00;;;;;;4890343;29;20295;-93
2022/10/06 13:08:31;;;;;;;34.67;31.00;;;18.00;1.00;;;;;;4895695;29;20704;-93
2022/10/06 13:11:20;;;;;;;48.33;44.00;;;18.30;1.00;;;;;;4891009;29;20212;-92
2022/10/06 13:13:49;;;;;;;56.93;53.33;;;18.60;1.00;;;;;;4882413;29;20741;-93
2022/10/06 13:16:19;;;;;;;51.97;47.93;;;18.80;1.00;;;;;;4880689;29;20693;-92
2022/10/06 13:18:46;;;;;;;53.73;45.23;;;19.00;1.00;;;;;;4881209;29;20220;-92
2022/10/06 13:21:16;;;;;;;69.13;63.00;;;19.00;1.00;;;;;;4880864;29;20253;-91
2022/10/06 13:23:45;;;;;;;48.53;44.43;;;19.10;1.00;;;;;;4900954;29;20197;-91
2022/10/06 13:26:21;;;;;;;53.40;49.97;;;19.20;1.00;;;;;;4955730;29;20741;-92
2022/10/06 13:28:50;;;;;;;59.60;55.20;;;19.20;1.00;;;;;;4940459;29;20272;-91
2022/10/06 13:31:20;;;;;;;57.70;54.27;;;19.10;1.00;;;;;;4921914;29;20208;-92
2022/10/06 13:33:52;;;;;;;51.70;47.93;;;19.00;1.00;;;;;;4920262;29;20229;-92
2022/10/06 13:36:22;;;;;;;63.67;59.87;;;19.00;1.00;;;;;;4919991;29;20685;-92
2022/10/06 13:38:50;;;;;;;61.97;57.83;;;19.00;1.00;;;;;;4919875;29;20207;-94
2022/10/06 13:41:28;;;;;;;56.63;53.37;;;19.00;1.00;;;;;;4919788;29;20212;-95
2022/10/06 13:43:59;;;;;;;54.73;51.13;;;19.00;1.00;;;;;;4919629;29;20255;-93
2022/10/06 13:46:29;;;;;;;54.03;50.73;;;18.90;1.00;;;;;;4923890;29;20214;-94
2022/10/06 13:49:02;;;;;;;54.40;51.27;;;18.80;1.00;;;;;;4938387;29;20210;-92
2022/10/06 13:51:31;;;;;;;54.50;51.47;;;18.70;1.00;;;;;;4937386;29;20216;-90
2022/10/06 13:54:00;;;;;;;58.80;55.30;;;18.70;1.00;;;;;;4938437;29;20209;-91
2022/10/06 13:56:37;;;;;;;55.87;52.43;;;18.60;1.00;;;;;;4937242;29;20228;-88
2022/10/06 13:59:29;;;;;;;55.07;51.77;;;18.60;1.00;;;;;;4925322;29;20209;-89
2022/10/06 14:01:57;;;;;;;52.63;49.63;;;18.50;1.00;;;;;;4925758;29;20198;-91
2022/10/06 14:04:24;;;;;;;51.10;48.23;;;18.40;1.00;;;;;;4928807;29;20251;-87
2022/10/06 14:06:54;;;;;;;52.20;49.20;;;18.20;1.00;;;;;;4932495;29;20228;-87
2022/10/06 14:09:24;;;;;;;55.97;52.60;;;18.10;1.00;;;;;;4925548;29;20694;-86
2022/10/06 14:12:01;;;;;;;55.33;52.00;;;17.90;1.00;;;;;;4926794;29;20184;-87
2022/10/06 14:14:28;;;;;;;50.97;47.90;;;17.80;1.00;;;;;;4954664;29;20206;-87
2022/10/06 14:16:56;;;;;;;54.03;50.83;;;17.70;1.00;;;;;;4939766;29;20215;-88
2022/10/06 14:19:34;;;;;;;55.03;51.60;;;17.60;1.00;;;;;;4927932;29;20232;-88
2022/10/06 14:22:03;;;;;;;58.03;54.57;;;17.50;1.00;;;;;;4922801;29;20190;-88
2022/10/06 14:24:33;;;;;;;49.50;46.50;;;17.50;1.00;;;;;;4924851;29;20197;-90
2022/10/06 14:27:06;;;;;;;48.33;45.53;;;17.50;1.00;;;;;;4927853;29;20214;-88
2022/10/06 14:29:36;;;;;;;51.23;48.23;;;17.40;1.00;;;;;;4935986;29;20202;-87
2022/10/06 14:32:12;;;;;;;53.20;50.03;;;17.40;1.00;;;;;;4936311;29;20550;-87
2022/10/06 14:34:40;;;;;;;52.23;49.10;;;17.30;1.00;;;;;;4936185;29;20707;-88
2022/10/06 14:37:10;;;;;;;49.73;46.70;;;17.30;1.00;;;;;;4935572;29;20194;-88
2022/10/06 14:39:54;;;;;;;55.73;52.00;;;17.30;1.00;;;;;;4932958;29;20192;-91
2022/10/06 14:42:32;;;;;;;53.13;49.87;;;17.20;1.00;;;;;;4959140;28;20231;-90
2022/10/06 14:44:59;;;;;;;58.63;54.57;;;17.10;1.00;;;;;;4935822;29;20203;-87
2022/10/06 14:47:26;;;;;;;56.87;53.20;;;17.00;1.00;;;;;;4940064;29;20554;-88
2022/10/06 14:49:53;;;;;;;58.17;54.87;;;17.00;1.00;;;;;;4935801;29;20201;-87
2022/10/06 14:52:21;;;;;;;;;;;17.00;1.00;;;;;;4936502;29;20200;-88
2022/10/06 14:54:48;;;;;;;;;;;17.00;1.00;;;;;;4935752;29;19981;-88
2022/10/06 14:57:19;;;;;;;56.77;53.47;;;17.00;1.00;;;;;;4938673;29;19994;-92
2022/10/06 15:00:01;;;;;;;53.77;50.03;;;17.00;1.00;;;;;;4956346;29;20213;-91
2022/10/06 15:02:42;;;;;;;68.63;64.63;;;17.00;1.00;;;;;;4954838;29;20230;-90
2022/10/06 15:05:10;;;;;;;65.33;61.53;;;17.00;1.00;;;;;;4943531;29;20295;-88
2022/10/06 15:10:21;;;;;;;20.50;16.63;;;16.90;1.00;;;;;;4924272;29;20197;-89
2022/10/06 15:13:05;;;;;;;22.77;17.30;;;16.90;1.00;;;;;;4919943;29;20266;-92
2022/10/06 15:15:33;;;;;;;19.87;17.43;;;16.80;1.00;;;;;;4922378;29;20722;-87
2022/10/06 15:18:06;;;;;;;21.67;19.27;;;16.80;1.00;;;;;;4935278;29;20286;-90
2022/10/06 15:20:33;;;;;;;21.43;19.13;;;16.70;1.00;;;;;;4938945;29;20688;-88
2022/10/06 15:23:00;;;;;;;19.90;17.83;;;16.70;1.00;;;;;;4938841;29;20256;-88
2022/10/06 15:31:24;;;;;;;23.63;21.17;;;16.60;1.00;;;;;;4944380;29;20200;-89
2022/10/06 15:33:52;;;;;;;;;;;16.50;1.00;;;;;;4944216;29;20251;-87
2022/10/06 15:36:19;;;;;;;;;;;16.50;1.00;;;;;;4937695;29;20006;-88
2022/10/06 15:38:46;;;;;;;;;;;16.40;1.00;;;;;;4952868;28;19911;-87
2022/10/06 15:41:20;;;;;;;;;;;16.30;1.00;;;;;;4945788;29;20229;-92
2022/10/06 15:44:04;;;;;;;21.93;19.77;;;16.20;1.00;;;;;;4946429;29;20106;-93
2022/10/06 15:46:34;;;;;;;31.00;26.90;;;16.10;1.00;;;;;;4945668;29;20232;-88
2022/10/06 15:49:04;;;;;;;28.50;25.83;;;16.10;1.00;;;;;;4938518;29;20201;-87
2022/10/06 15:51:33;;;;;;;31.50;28.33;;;16.00;1.00;;;;;;4944706;29;20204;-89
2022/10/06 15:54:04;;;;;;;31.17;28.00;;;15.90;1.00;;;;;;4948983;29;20188;-93
2022/10/06 15:56:32;;;;;;;29.73;26.90;;;15.80;1.00;;;;;;4945945;29;20197;-87
2022/10/06 15:59:08;;;;;;;24.57;22.30;;;15.70;1.00;;;;;;4927917;29;20200;-92
2022/10/06 16:01:41;;;;;;;25.80;23.20;;;15.60;1.00;;;;;;4920283;29;20560;-88
2022/10/06 16:04:22;;;;;;;23.67;21.47;;;15.50;1.00;;;;;;4935874;29;20234;-91
2022/10/06 16:06:54;;;;;;;27.77;24.80;;;15.40;1.00;;;;;;4938948;29;20242;-93